Time;durP1;ratioP1;P1;durP2;ratioP2;P2;SDS_P1;SDS_P2;PMS_P1;PMS_P2;Temp;Humidity;BMP_temperature;BMP_pressure;BME280_temperature;BME280_humidity;BME280_pressure;Samples;Min_cycle;Max_cycle;Signal;HPM_P1;HPM_P2
2021/01/24 00:01:04;;;;;;;8.95;7.07;;;0.30;99.90;;;;;;4741673;30;20147;-79
2021/01/24 00:03:36;;;;;;;10.20;6.60;;;0.30;99.90;;;;;;4756415;30;20052;-80
2021/01/24 00:06:07;;;;;;;12.55;6.50;;;0.30;99.90;;;;;;4742534;30;20051;-79
2021/01/24 00:08:38;;;;;;;9.50;6.13;;;0.30;99.90;;;;;;4756534;30;20044;-80
2021/01/24 00:11:10;;;;;;;9.32;6.15;;;0.30;99.90;;;;;;4756891;30;20065;-80
2021/01/24 00:13:41;;;;;;;8.13;5.35;;;0.30;99.90;;;;;;4756400;30;20061;-79
2021/01/24 00:16:12;;;;;;;8.48;5.32;;;0.40;99.90;;;;;;4741858;30;20047;-79
2021/01/24 00:18:43;;;;;;;7.50;4.00;;;0.40;99.90;;;;;;4755483;30;20070;-79
2021/01/24 00:21:09;;;;;;;5.25;2.97;;;0.50;99.90;;;;;;4755462;30;20147;-79
2021/01/24 00:23:36;;;;;;;5.82;2.50;;;0.70;99.90;;;;;;4758587;30;20047;-80
2021/01/24 00:26:07;;;;;;;3.28;2.60;;;0.80;99.90;;;;;;4773893;30;20043;-80
2021/01/24 00:28:38;;;;;;;3.15;2.20;;;0.90;99.90;;;;;;4773247;30;20047;-79
2021/01/24 00:31:10;;;;;;;2.58;1.67;;;1.00;99.90;;;;;;4775266;30;20051;-80
2021/01/24 00:33:41;;;;;;;2.08;1.50;;;1.10;99.90;;;;;;4764201;30;20052;-80
2021/01/24 00:36:07;;;;;;;2.10;1.40;;;1.20;99.90;;;;;;4761003;30;20059;-79
2021/01/24 00:38:33;;;;;;;3.00;1.60;;;1.30;99.90;;;;;;4774776;30;20065;-79
2021/01/24 00:41:04;;;;;;;2.67;1.60;;;1.30;99.90;;;;;;4773905;30;20044;-82
2021/01/24 00:43:31;;;;;;;2.40;1.77;;;1.30;99.90;;;;;;4773593;30;20150;-79
2021/01/24 00:45:58;;;;;;;2.00;1.30;;;1.30;99.90;;;;;;4772607;30;20146;-79
2021/01/24 00:48:35;;;;;;;1.60;1.30;;;1.30;99.90;;;;;;4771874;30;20051;-79
2021/01/24 00:51:02;;;;;;;1.90;1.50;;;1.30;99.90;;;;;;4771784;30;20577;-79
2021/01/24 00:53:28;;;;;;;2.28;1.40;;;1.40;99.90;;;;;;4770973;30;20051;-79
2021/01/24 00:56:00;;;;;;;1.70;1.50;;;1.40;99.90;;;;;;4755977;30;20054;-78
2021/01/24 00:58:26;;;;;;;4.38;1.55;;;1.40;99.90;;;;;;4769576;30;20051;-81
2021/01/24 01:00:58;;;;;;;2.38;1.80;;;1.40;99.90;;;;;;4756270;30;20057;-79
2021/01/24 01:03:29;;;;;;;2.33;1.60;;;1.40;99.90;;;;;;4785232;30;20047;-78
2021/01/24 01:06:00;;;;;;;2.17;1.83;;;1.50;99.90;;;;;;4785279;30;20479;-80
2021/01/24 01:08:31;;;;;;;2.30;1.80;;;1.50;99.90;;;;;;4769697;30;20054;-78
2021/01/24 01:11:03;;;;;;;2.45;1.67;;;1.50;99.90;;;;;;4770070;30;20065;-79
2021/01/24 01:13:34;;;;;;;2.95;2.05;;;1.50;99.90;;;;;;4769975;30;20524;-78
2021/01/24 01:16:05;;;;;;;2.05;1.60;;;1.60;99.90;;;;;;4769833;30;20043;-79
2021/01/24 01:18:36;;;;;;;2.42;2.00;;;1.50;99.90;;;;;;4769999;30;20048;-79
2021/01/24 01:21:03;;;;;;;2.15;1.90;;;1.50;99.90;;;;;;4769864;30;20149;-79
2021/01/24 01:23:34;;;;;;;2.42;1.70;;;1.50;99.90;;;;;;4770834;30;20510;-79
2021/01/24 01:26:05;;;;;;;2.58;2.08;;;1.60;99.90;;;;;;4770620;30;20054;-80
2021/01/24 01:28:36;;;;;;;3.15;1.65;;;1.50;99.90;;;;;;4771064;30;20047;-79
2021/01/24 01:31:08;;;;;;;2.10;1.90;;;1.50;99.90;;;;;;4786720;30;20307;-79
2021/01/24 01:33:39;;;;;;;2.28;1.80;;;1.50;99.90;;;;;;4772101;30;20055;-80
2021/01/24 01:36:05;;;;;;;2.35;1.80;;;1.50;99.90;;;;;;4772469;30;20059;-80
2021/01/24 01:38:37;;;;;;;4.88;2.33;;;1.50;99.90;;;;;;4770563;29;20051;-77
2021/01/24 01:41:08;;;;;;;2.30;1.70;;;1.50;99.90;;;;;;4788127;30;20126;-77
2021/01/24 01:43:39;;;;;;;2.20;1.88;;;1.40;99.90;;;;;;4789269;30;20057;-76
2021/01/24 01:46:19;;;;;;;2.08;1.73;;;1.50;99.90;;;;;;4773353;30;20047;-76
2021/01/24 01:48:51;;;;;;;2.08;1.73;;;1.40;99.90;;;;;;4773294;30;20240;-76
2021/01/24 01:51:22;;;;;;;2.20;1.92;;;1.30;99.90;;;;;;4788695;30;20047;-76
2021/01/24 01:53:54;;;;;;;2.08;1.73;;;1.30;99.90;;;;;;4773089;30;20047;-76
2021/01/24 01:56:25;;;;;;;1.80;1.60;;;1.40;99.90;;;;;;4773120;30;20057;-78
2021/01/24 01:58:56;;;;;;;1.50;1.30;;;1.30;99.90;;;;;;4773591;30;20058;-76
2021/01/24 02:01:50;;;;;;;1.88;1.50;;;1.30;99.90;;;;;;4772400;30;20134;-76
2021/01/24 02:04:36;;;;;;;2.58;2.00;;;1.30;99.90;;;;;;4772304;30;20427;-77
2021/01/24 02:07:16;;;;;;;2.08;1.77;;;1.30;99.90;;;;;;4787296;30;20422;-76
2021/01/24 02:10:01;;;;;;;2.13;1.65;;;1.30;99.90;;;;;;4772169;30;20055;-77
2021/01/24 02:12:38;;;;;;;2.08;1.77;;;1.30;99.90;;;;;;4772289;30;20048;-76
2021/01/24 02:15:16;;;;;;;2.20;2.00;;;1.30;99.90;;;;;;4772156;30;20061;-78
2021/01/24 02:17:55;;;;;;;2.13;1.70;;;1.20;99.90;;;;;;4771652;30;20051;-76
2021/01/24 02:20:51;;;;;;;2.67;1.60;;;1.30;99.90;;;;;;4771245;30;20051;-76
2021/01/24 02:23:24;;;;;;;2.40;1.40;;;1.20;99.90;;;;;;4772381;30;20067;-76
2021/01/24 02:26:28;;;;;;;2.67;1.90;;;1.20;99.90;;;;;;4771711;30;20047;-78
2021/01/24 02:29:13;;;;;;;1.90;1.60;;;1.20;99.90;;;;;;4734446;30;20158;-78
2021/01/24 02:31:46;;;;;;;3.08;1.65;;;1.20;99.90;;;;;;4772455;30;20526;-76
2021/01/24 02:34:21;;;;;;;2.00;1.57;;;1.20;99.90;;;;;;4772262;30;20051;-76
2021/01/24 02:36:53;;;;;;;2.70;1.80;;;1.20;99.90;;;;;;4772280;30;20051;-76
2021/01/24 02:39:26;;;;;;;1.92;1.60;;;1.10;99.90;;;;;;4771195;30;20043;-76
2021/01/24 02:41:57;;;;;;;2.92;1.58;;;1.10;99.90;;;;;;4771675;30;20047;-76
2021/01/24 02:44:29;;;;;;;2.03;1.60;;;1.10;99.90;;;;;;4771604;30;20055;-79
2021/01/24 02:46:57;;;;;;;2.17;1.65;;;1.10;99.90;;;;;;4786700;30;20058;-76
2021/01/24 02:49:30;;;;;;;2.33;1.50;;;1.10;99.90;;;;;;4771330;30;20526;-76
2021/01/24 02:52:01;;;;;;;1.95;1.58;;;1.10;99.90;;;;;;4771237;30;20067;-77
2021/01/24 02:54:34;;;;;;;2.22;1.50;;;1.10;99.90;;;;;;4771983;30;20055;-77
2021/01/24 02:57:06;;;;;;;2.70;1.45;;;1.10;99.90;;;;;;4771917;30;20058;-76
2021/01/24 02:59:38;;;;;;;1.58;1.30;;;1.10;99.90;;;;;;4771747;30;20071;-76
2021/01/24 03:02:04;;;;;;;1.90;1.40;;;1.10;99.90;;;;;;4772245;30;20052;-76
2021/01/24 03:04:35;;;;;;;1.83;1.50;;;1.10;99.90;;;;;;4772011;30;20043;-76
2021/01/24 03:07:06;;;;;;;1.60;1.20;;;1.20;99.90;;;;;;4772047;30;20051;-78
2021/01/24 03:09:38;;;;;;;1.55;1.02;;;1.20;99.90;;;;;;4771521;30;20051;-76
2021/01/24 03:12:10;;;;;;;2.47;1.38;;;1.20;99.90;;;;;;4786887;30;20443;-76
2021/01/24 03:14:38;;;;;;;3.47;1.20;;;1.20;99.90;;;;;;4786615;30;20062;-76
2021/01/24 03:17:06;;;;;;;1.30;1.15;;;1.30;99.90;;;;;;4772316;30;20066;-76
2021/01/24 03:19:38;;;;;;;3.33;1.40;;;1.30;99.90;;;;;;4771294;30;20069;-76
2021/01/24 03:22:10;;;;;;;1.45;1.20;;;1.30;99.90;;;;;;4771577;30;20051;-77
2021/01/24 03:24:44;;;;;;;1.42;1.13;;;1.30;99.90;;;;;;4771273;30;20047;-78
2021/01/24 03:27:10;;;;;;;2.25;1.20;;;1.30;99.90;;;;;;4771148;30;20063;-76
2021/01/24 03:29:42;;;;;;;1.17;0.93;;;1.20;99.90;;;;;;4770887;30;20055;-76
2021/01/24 03:32:13;;;;;;;1.10;0.80;;;1.20;99.90;;;;;;4770786;30;20095;-76
2021/01/24 03:34:45;;;;;;;1.60;1.02;;;1.20;99.90;;;;;;4770816;30;20062;-76
2021/01/24 03:37:17;;;;;;;3.33;1.20;;;1.20;99.90;;;;;;4786053;30;20499;-76
2021/01/24 03:39:48;;;;;;;1.65;1.02;;;1.30;99.90;;;;;;4770613;30;20056;-76
2021/01/24 03:42:19;;;;;;;1.00;0.90;;;1.20;99.90;;;;;;4771133;30;20477;-76
2021/01/24 03:44:50;;;;;;;3.80;0.88;;;1.20;99.90;;;;;;4770783;30;20054;-76
2021/01/24 03:47:16;;;;;;;2.58;1.10;;;1.20;99.90;;;;;;4785503;29;20138;-76
2021/01/24 03:49:48;;;;;;;1.58;1.20;;;1.30;99.90;;;;;;4770074;30;20055;-79
2021/01/24 03:52:19;;;;;;;1.40;0.93;;;1.30;99.90;;;;;;4770566;30;20414;-76
2021/01/24 03:54:50;;;;;;;1.50;0.80;;;1.20;99.90;;;;;;4770274;30;20051;-77
2021/01/24 03:57:23;;;;;;;1.33;0.80;;;1.30;99.90;;;;;;4770841;30;20056;-76
2021/01/24 03:59:54;;;;;;;1.02;0.75;;;1.30;99.90;;;;;;4770331;30;20051;-76
2021/01/24 04:02:21;;;;;;;1.20;0.90;;;1.30;99.90;;;;;;4770448;30;20048;-76
2021/01/24 04:04:52;;;;;;;1.10;1.00;;;1.30;99.90;;;;;;4785513;30;20057;-76
2021/01/24 04:07:19;;;;;;;1.95;0.82;;;1.30;99.90;;;;;;4770506;30;20149;-76
2021/01/24 04:09:45;;;;;;;1.08;0.80;;;1.30;99.90;;;;;;4770109;30;20069;-76
2021/01/24 04:12:16;;;;;;;0.60;0.50;;;1.20;99.90;;;;;;4786560;30;20051;-78
2021/01/24 04:14:48;;;;;;;1.92;0.60;;;1.30;99.90;;;;;;4769972;30;20051;-76
2021/01/24 04:17:19;;;;;;;1.02;0.65;;;1.40;99.90;;;;;;4770460;30;20055;-76
2021/01/24 04:19:50;;;;;;;1.02;0.77;;;1.40;99.90;;;;;;4770035;30;20051;-78
2021/01/24 04:22:21;;;;;;;0.90;0.60;;;1.40;99.90;;;;;;4770526;30;20049;-76
2021/01/24 04:24:52;;;;;;;0.82;0.73;;;1.40;99.90;;;;;;4770220;30;20053;-78
2021/01/24 04:27:24;;;;;;;0.68;0.60;;;1.50;99.90;;;;;;4770338;30;20054;-76
2021/01/24 04:29:55;;;;;;;0.70;0.60;;;1.40;99.90;;;;;;4770165;30;20055;-77
2021/01/24 04:32:26;;;;;;;0.82;0.65;;;1.40;99.90;;;;;;4770628;30;20063;-76
2021/01/24 04:34:57;;;;;;;1.05;0.57;;;1.40;99.90;;;;;;4770582;30;20055;-76
2021/01/24 04:37:28;;;;;;;1.20;0.52;;;1.30;99.90;;;;;;4770521;30;20051;-77
2021/01/24 04:40:00;;;;;;;0.60;0.50;;;1.30;99.90;;;;;;4785115;30;20411;-76
2021/01/24 04:42:32;;;;;;;0.90;0.55;;;1.30;99.90;;;;;;4771849;30;20047;-76
2021/01/24 04:45:05;;;;;;;0.90;0.50;;;1.20;99.90;;;;;;4771548;30;20061;-78
2021/01/24 04:47:40;;;;;;;0.60;0.55;;;1.10;99.90;;;;;;4771486;30;20047;-79
2021/01/24 04:50:12;;;;;;;0.38;0.30;;;1.00;99.90;;;;;;4757351;30;20054;-77
2021/01/24 04:52:43;;;;;;;0.65;0.52;;;1.00;99.90;;;;;;4771544;30;20055;-77
2021/01/24 04:55:16;;;;;;;1.08;0.88;;;1.10;99.90;;;;;;4786235;30;20051;-76
2021/01/24 04:57:43;;;;;;;0.75;0.60;;;1.00;99.90;;;;;;4771018;30;20432;-79
2021/01/24 05:00:11;;;;;;;0.98;0.57;;;0.90;99.90;;;;;;4770713;30;20427;-76
2021/01/24 05:02:43;;;;;;;0.50;0.50;;;0.90;99.90;;;;;;4771286;30;20057;-77
2021/01/24 05:05:15;;;;;;;0.80;0.60;;;0.90;99.90;;;;;;4770678;30;20430;-76
2021/01/24 05:08:05;;;;;;;0.70;0.50;;;0.80;99.90;;;;;;4770701;30;20051;-77
2021/01/24 05:10:36;;;;;;;0.50;0.45;;;0.80;99.90;;;;;;4770636;30;20055;-76
2021/01/24 05:13:08;;;;;;;0.70;0.57;;;0.80;99.90;;;;;;4770901;30;20057;-79
2021/01/24 05:15:39;;;;;;;1.00;0.60;;;0.70;99.90;;;;;;4773918;30;20051;-77
2021/01/24 05:18:06;;;;;;;0.90;0.50;;;0.70;99.90;;;;;;4774966;30;20570;-78
2021/01/24 05:20:33;;;;;;;0.70;0.60;;;0.70;99.90;;;;;;4774825;30;20062;-77
2021/01/24 05:23:08;;;;;;;0.90;0.60;;;0.60;99.90;;;;;;4774866;30;20051;-79
2021/01/24 05:25:39;;;;;;;0.75;0.50;;;0.60;99.90;;;;;;4774493;30;20519;-77
2021/01/24 05:28:26;;;;;;;0.80;0.57;;;0.60;99.90;;;;;;4774758;30;20504;-77
2021/01/24 05:31:05;;;;;;;0.60;0.50;;;0.60;99.90;;;;;;4774954;30;20047;-77
2021/01/24 05:33:42;;;;;;;1.15;0.60;;;0.50;99.90;;;;;;4790015;30;20055;-77
2021/01/24 05:36:14;;;;;;;0.70;0.60;;;0.50;99.90;;;;;;4774654;30;20486;-79
2021/01/24 05:38:45;;;;;;;0.52;0.50;;;0.40;99.90;;;;;;4774608;30;20515;-77
2021/01/24 05:41:16;;;;;;;0.55;0.55;;;0.40;99.90;;;;;;4774914;30;20066;-77
2021/01/24 05:43:47;;;;;;;0.75;0.50;;;0.40;99.90;;;;;;4775414;30;20051;-77
2021/01/24 05:46:33;;;;;;;0.65;0.60;;;0.30;99.90;;;;;;4775087;30;20515;-77
2021/01/24 05:49:00;;;;;;;0.52;0.43;;;0.20;99.90;;;;;;4774753;30;20392;-78
2021/01/24 05:51:29;;;;;;;0.75;0.43;;;0.20;99.90;;;;;;4775412;30;20051;-77
2021/01/24 05:54:00;;;;;;;0.35;0.35;;;0.20;99.90;;;;;;4775337;30;20047;-77
2021/01/24 05:56:26;;;;;;;0.73;0.55;;;0.20;99.90;;;;;;4790609;29;20122;-77
2021/01/24 05:58:57;;;;;;;1.00;0.65;;;0.10;99.90;;;;;;4775086;30;20158;-78
2021/01/24 06:01:30;;;;;;;1.42;1.13;;;0.10;99.90;;;;;;4775178;30;20058;-78
2021/01/24 06:04:01;;;;;;;1.17;0.80;;;0.10;99.90;;;;;;4773462;30;20047;-77
2021/01/24 06:06:27;;;;;;;1.23;0.73;;;0.10;99.90;;;;;;4787777;29;20044;-77
2021/01/24 06:08:54;;;;;;;2.22;0.70;;;0.10;99.90;;;;;;4772625;30;20055;-77
2021/01/24 06:11:27;;;;;;;1.45;1.10;;;0.00;99.90;;;;;;4772935;30;20063;-76
2021/01/24 06:14:01;;;;;;;1.10;0.77;;;0.00;99.90;;;;;;4772774;30;20052;-78
2021/01/24 06:16:36;;;;;;;1.77;1.20;;;0.00;99.90;;;;;;4787747;30;20057;-77
2021/01/24 06:19:11;;;;;;;2.53;0.90;;;0.00;99.90;;;;;;4773066;30;20567;-77
2021/01/24 06:21:42;;;;;;;1.33;1.02;;;-0.10;99.90;;;;;;4787032;30;20085;-77
2021/01/24 06:24:23;;;;;;;1.55;1.08;;;-0.10;99.90;;;;;;4772329;30;20538;-76
2021/01/24 06:26:56;;;;;;;2.50;1.35;;;-0.10;99.90;;;;;;4771280;30;20142;-76
2021/01/24 06:29:25;;;;;;;2.85;1.10;;;-0.10;99.90;;;;;;4772331;30;20089;-79
2021/01/24 06:31:56;;;;;;;1.58;1.08;;;-0.20;99.90;;;;;;4772997;30;20055;-78
2021/01/24 06:34:35;;;;;;;1.52;1.13;;;-0.20;99.90;;;;;;4770841;30;20047;-77
2021/01/24 06:37:08;;;;;;;1.25;0.95;;;-0.20;99.90;;;;;;4771341;30;20074;-77
2021/01/24 06:39:50;;;;;;;1.33;0.93;;;-0.20;99.90;;;;;;4770803;30;20059;-78
2021/01/24 06:42:41;;;;;;;1.58;0.90;;;-0.10;99.90;;;;;;4785976;30;20138;-76
2021/01/24 06:45:22;;;;;;;1.88;1.30;;;-0.10;99.90;;;;;;4771724;30;20069;-77
2021/01/24 06:47:58;;;;;;;2.58;1.10;;;-0.10;99.90;;;;;;4770684;30;20146;-77
2021/01/24 06:50:44;;;;;;;1.30;1.10;;;-0.10;99.90;;;;;;4786549;30;20051;-77
2021/01/24 06:53:18;;;;;;;1.25;0.70;;;-0.10;99.90;;;;;;4757460;30;20051;-77
2021/01/24 06:55:59;;;;;;;1.70;1.10;;;-0.20;99.90;;;;;;4771636;30;20118;-77
2021/01/24 06:58:35;;;;;;;1.88;1.02;;;-0.20;99.90;;;;;;4771630;30;20151;-78
2021/01/24 07:01:24;;;;;;;0.80;0.70;;;-0.30;99.90;;;;;;4771479;30;20075;-77
2021/01/24 07:04:19;;;;;;;1.77;0.82;;;-0.40;99.90;;;;;;4771101;30;20078;-77
2021/01/24 07:06:57;;;;;;;1.77;1.08;;;-0.40;99.90;;;;;;4772097;30;20132;-76
2021/01/24 07:09:32;;;;;;;1.10;1.00;;;-0.40;99.90;;;;;;4770637;30;20191;-76
2021/01/24 07:12:00;;;;;;;1.60;0.90;;;-0.40;99.90;;;;;;4770940;30;20149;-76
2021/01/24 07:14:35;;;;;;;2.72;1.48;;;-0.50;99.90;;;;;;4786172;30;20081;-77
2021/01/24 07:17:07;;;;;;;2.35;1.50;;;-0.50;99.90;;;;;;4771539;30;20048;-77
2021/01/24 07:19:45;;;;;;;1.75;1.15;;;-0.50;99.90;;;;;;4771248;30;20055;-76
2021/01/24 07:22:18;;;;;;;2.55;1.23;;;-0.60;99.90;;;;;;4756741;30;20048;-78
2021/01/24 07:25:14;;;;;;;1.70;1.20;;;-0.60;99.90;;;;;;4735713;30;20058;-78
2021/01/24 07:27:45;;;;;;;2.08;1.23;;;-0.60;99.90;;;;;;4741210;30;20504;-78
2021/01/24 07:30:12;;;;;;;1.83;1.60;;;-0.70;99.90;;;;;;4740570;30;20063;-80
2021/01/24 07:32:44;;;;;;;1.50;1.33;;;-0.70;99.90;;;;;;4756374;30;20055;-77
2021/01/24 07:35:15;;;;;;;1.85;1.23;;;-0.70;99.90;;;;;;4773252;30;20515;-77
2021/01/24 07:37:42;;;;;;;1.40;1.05;;;-0.70;99.90;;;;;;4772649;30;20051;-78
2021/01/24 07:40:09;;;;;;;2.03;1.35;;;-0.70;99.90;;;;;;4787862;30;20119;-79
2021/01/24 07:42:40;;;;;;;1.60;1.23;;;-0.70;99.90;;;;;;4772963;30;20134;-77
2021/01/24 07:45:12;;;;;;;2.30;1.40;;;-0.70;99.90;;;;;;4758711;30;20077;-77
2021/01/24 07:47:38;;;;;;;2.20;1.50;;;-0.70;99.90;;;;;;4772029;30;20044;-79
2021/01/24 07:50:10;;;;;;;3.10;1.20;;;-0.80;99.90;;;;;;4772778;30;20058;-77
2021/01/24 07:52:41;;;;;;;2.53;1.50;;;-0.80;99.90;;;;;;4772975;30;20055;-77
2021/01/24 07:55:13;;;;;;;2.75;1.08;;;-0.80;99.90;;;;;;4787551;30;20051;-79
2021/01/24 07:57:39;;;;;;;1.23;0.98;;;-0.80;99.90;;;;;;4772250;30;20071;-78
2021/01/24 08:00:07;;;;;;;1.42;1.10;;;-0.80;99.90;;;;;;4771923;30;20145;-77
2021/01/24 08:02:38;;;;;;;1.25;1.00;;;-0.80;99.90;;;;;;4786989;30;20051;-77
2021/01/24 08:05:10;;;;;;;1.20;1.10;;;-0.80;99.90;;;;;;4772321;30;20043;-77
2021/01/24 08:07:37;;;;;;;1.10;0.90;;;-0.80;99.90;;;;;;4771993;30;20724;-77
2021/01/24 08:10:09;;;;;;;1.50;1.13;;;-0.80;99.90;;;;;;4771594;30;20454;-77
2021/01/24 08:12:40;;;;;;;1.63;1.23;;;-0.80;99.90;;;;;;4771144;30;20521;-77
2021/01/24 08:15:12;;;;;;;1.70;1.00;;;-0.80;99.90;;;;;;4771665;30;20061;-79
2021/01/24 08:17:40;;;;;;;1.88;1.00;;;-0.70;99.90;;;;;;4771380;30;20178;-77
2021/01/24 08:20:12;;;;;;;1.48;1.10;;;-0.70;99.90;;;;;;4770673;30;20051;-77
2021/01/24 08:22:44;;;;;;;3.03;1.10;;;-0.60;99.90;;;;;;4761585;30;20058;-77
2021/01/24 08:25:17;;;;;;;4.25;1.85;;;-0.60;99.90;;;;;;4746889;30;20051;-77
2021/01/24 08:27:48;;;;;;;2.78;1.50;;;-0.60;99.90;;;;;;4750626;30;20052;-77
2021/01/24 08:30:20;;;;;;;2.42;1.45;;;-0.50;99.90;;;;;;4753525;30;20055;-76
2021/01/24 08:32:51;;;;;;;2.28;1.45;;;-0.50;99.90;;;;;;4753042;30;20058;-77
2021/01/24 08:35:17;;;;;;;2.60;1.33;;;-0.50;99.90;;;;;;4752811;30;20579;-77
2021/01/24 08:37:44;;;;;;;1.90;1.50;;;-0.50;99.90;;;;;;4752438;30;20055;-77
2021/01/24 08:40:15;;;;;;;2.33;1.33;;;-0.50;99.90;;;;;;4752725;30;20083;-77
2021/01/24 08:42:49;;;;;;;4.20;2.20;;;-0.40;99.90;;;;;;4753344;30;20504;-77
2021/01/24 08:45:23;;;;;;;2.55;1.63;;;-0.40;99.90;;;;;;4752144;30;20055;-78
2021/01/24 08:47:59;;;;;;;2.28;1.65;;;-0.40;99.90;;;;;;4752339;30;20647;-77
2021/01/24 08:50:35;;;;;;;2.13;1.35;;;-0.30;99.90;;;;;;4752247;30;20427;-78
2021/01/24 08:53:08;;;;;;;2.97;2.00;;;-0.30;99.90;;;;;;4748801;30;20500;-77
2021/01/24 08:55:50;;;;;;;2.45;1.88;;;-0.30;99.90;;;;;;4730497;30;20530;-77
2021/01/24 08:58:27;;;;;;;1.83;1.50;;;-0.30;99.90;;;;;;4747873;30;20519;-77
2021/01/24 09:01:06;;;;;;;3.67;1.45;;;-0.30;99.90;;;;;;4736672;30;20048;-78
2021/01/24 09:03:38;;;;;;;3.42;1.83;;;-0.30;99.90;;;;;;4753042;30;20051;-77
2021/01/24 09:06:19;;;;;;;3.83;1.63;;;-0.20;99.90;;;;;;4740512;30;20037;-77
2021/01/24 09:08:52;;;;;;;3.20;2.33;;;-0.20;99.90;;;;;;4744435;30;20058;-77
2021/01/24 09:11:22;;;;;;;2.10;1.70;;;-0.20;99.90;;;;;;4751377;30;20150;-77
2021/01/24 09:13:48;;;;;;;2.20;1.50;;;-0.10;99.90;;;;;;4769364;29;20054;-77
2021/01/24 09:16:14;;;;;;;3.88;1.90;;;-0.20;99.90;;;;;;4746053;30;20155;-77
2021/01/24 09:18:46;;;;;;;1.83;1.23;;;-0.10;99.90;;;;;;4750380;30;20052;-78
2021/01/24 09:21:17;;;;;;;3.65;1.80;;;-0.10;99.90;;;;;;4747565;30;20043;-77
2021/01/24 09:23:43;;;;;;;2.70;1.75;;;-0.10;99.90;;;;;;4744082;30;20504;-77
2021/01/24 09:26:09;;;;;;;3.50;1.65;;;0.00;99.90;;;;;;4748134;30;20051;-79
2021/01/24 09:28:40;;;;;;;2.15;1.55;;;0.00;99.90;;;;;;4742416;30;20058;-77
2021/01/24 09:31:07;;;;;;;2.33;1.50;;;0.00;99.90;;;;;;4737602;30;20050;-77
2021/01/24 09:33:38;;;;;;;2.47;1.45;;;-0.10;99.90;;;;;;4738249;30;20061;-77
2021/01/24 09:36:09;;;;;;;3.38;1.85;;;0.00;99.90;;;;;;4755838;30;20074;-77
2021/01/24 09:38:40;;;;;;;2.47;2.20;;;0.00;99.90;;;;;;4765932;30;20422;-77
2021/01/24 09:41:07;;;;;;;4.45;2.00;;;0.00;99.90;;;;;;4741776;30;20067;-77
2021/01/24 09:43:40;;;;;;;2.75;2.05;;;0.10;99.90;;;;;;4769561;30;20054;-77
2021/01/24 09:46:12;;;;;;;3.05;1.70;;;0.10;99.90;;;;;;4770390;30;20522;-77
2021/01/24 09:48:38;;;;;;;3.70;2.47;;;0.10;99.90;;;;;;4740337;30;20487;-79
2021/01/24 09:51:08;;;;;;;5.40;1.60;;;0.10;99.90;;;;;;4760075;30;20058;-76
2021/01/24 09:53:38;;;;;;;2.28;1.60;;;0.10;99.90;;;;;;4755079;30;20526;-78
2021/01/24 09:56:05;;;;;;;2.60;1.70;;;0.10;99.90;;;;;;4763726;30;20413;-77
2021/01/24 09:58:33;;;;;;;3.05;1.73;;;0.10;99.90;;;;;;4729694;30;20424;-77
2021/01/24 10:01:04;;;;;;;1.67;1.25;;;0.10;99.90;;;;;;4754725;30;20047;-78
2021/01/24 10:03:36;;;;;;;2.03;1.50;;;0.20;99.90;;;;;;4760091;30;20135;-77
2021/01/24 10:06:08;;;;;;;3.33;1.80;;;0.20;99.90;;;;;;4756093;30;20043;-77
2021/01/24 10:08:40;;;;;;;2.08;1.88;;;0.20;99.90;;;;;;4760054;30;20039;-77
2021/01/24 10:11:07;;;;;;;2.15;1.60;;;0.30;99.90;;;;;;4750802;30;20617;-77
2021/01/24 10:13:39;;;;;;;2.25;1.55;;;0.30;99.90;;;;;;4764592;30;20533;-77
2021/01/24 10:16:10;;;;;;;4.68;2.03;;;0.30;99.90;;;;;;4749481;30;20051;-76
2021/01/24 10:18:42;;;;;;;2.47;1.65;;;0.40;99.90;;;;;;4753319;30;20139;-77
2021/01/24 10:21:13;;;;;;;2.20;1.77;;;0.40;99.90;;;;;;4750654;30;20530;-77
2021/01/24 10:23:44;;;;;;;3.30;1.60;;;0.40;99.90;;;;;;4758234;30;20066;-78
2021/01/24 10:26:16;;;;;;;2.17;1.58;;;0.40;99.90;;;;;;4782127;30;20043;-82
2021/01/24 10:28:42;;;;;;;3.55;2.20;;;0.40;99.90;;;;;;4755701;30;20571;-77
2021/01/24 10:31:13;;;;;;;2.97;2.15;;;0.40;99.90;;;;;;4754220;30;20423;-76
2021/01/24 10:33:45;;;;;;;4.20;2.00;;;0.50;99.90;;;;;;4756885;30;20138;-77
2021/01/24 10:36:11;;;;;;;4.38;2.45;;;0.50;99.90;;;;;;4746657;30;20579;-76
2021/01/24 10:38:39;;;;;;;3.05;1.92;;;0.50;99.90;;;;;;4730464;30;20243;-77
2021/01/24 10:41:05;;;;;;;3.58;1.98;;;0.60;99.90;;;;;;4752441;30;20504;-77
2021/01/24 10:43:31;;;;;;;5.35;2.67;;;0.60;99.90;;;;;;4751746;30;20039;-80
2021/01/24 10:45:58;;;;;;;19.15;9.40;;;0.60;99.90;;;;;;4748473;30;20471;-79
2021/01/24 10:48:24;;;;;;;4.35;3.38;;;0.60;99.90;;;;;;4750390;30;20052;-81
2021/01/24 10:50:51;;;;;;;2.40;1.75;;;0.70;99.90;;;;;;4753180;30;20136;-77
2021/01/24 10:53:17;;;;;;;1.85;1.30;;;0.70;99.90;;;;;;4755921;30;20079;-76
2021/01/24 10:55:43;;;;;;;2.67;1.55;;;0.70;99.90;;;;;;4753289;30;20131;-77
2021/01/24 10:58:10;;;;;;;2.65;1.83;;;0.70;99.90;;;;;;4768383;30;20059;-79
2021/01/24 11:00:41;;;;;;;2.53;1.60;;;0.80;99.90;;;;;;4752941;30;20139;-77
2021/01/24 11:03:07;;;;;;;3.75;1.70;;;0.80;99.90;;;;;;4724785;30;20139;-76
2021/01/24 11:05:38;;;;;;;2.78;1.75;;;0.80;99.90;;;;;;4735665;30;20052;-77
2021/01/24 11:08:10;;;;;;;2.85;1.95;;;0.80;99.90;;;;;;4748505;30;20115;-76
2021/01/24 11:10:36;;;;;;;2.97;1.70;;;0.80;99.40;;;;;;4734587;30;20764;-77
2021/01/24 11:13:07;;;;;;;2.42;1.35;;;0.80;99.90;;;;;;4749011;30;20068;-77
2021/01/24 11:15:38;;;;;;;2.97;2.10;;;0.90;99.80;;;;;;4759858;30;20051;-79
2021/01/24 11:18:05;;;;;;;2.25;1.63;;;0.90;98.30;;;;;;4757130;30;20126;-77
2021/01/24 11:20:36;;;;;;;3.17;1.70;;;0.90;99.60;;;;;;4756268;30;20196;-77
2021/01/24 11:23:02;;;;;;;1.90;1.40;;;1.00;98.60;;;;;;4770776;30;20052;-77
2021/01/24 11:25:28;;;;;;;4.03;1.45;;;0.90;99.60;;;;;;4769502;30;20430;-78
2021/01/24 11:27:59;;;;;;;2.42;1.70;;;0.90;99.20;;;;;;4753127;30;20043;-77
2021/01/24 11:30:31;;;;;;;2.53;1.60;;;0.90;98.50;;;;;;4738253;30;20605;-77
2021/01/24 11:32:57;;;;;;;2.75;2.03;;;0.90;98.60;;;;;;4766482;30;20058;-77
2021/01/24 11:35:28;;;;;;;4.05;1.65;;;1.00;99.30;;;;;;4734127;30;20059;-77
2021/01/24 11:37:59;;;;;;;3.05;1.80;;;1.00;98.70;;;;;;4719652;30;20135;-77
2021/01/24 11:40:30;;;;;;;2.10;1.90;;;1.00;99.20;;;;;;4736414;30;20063;-77
2021/01/24 11:43:02;;;;;;;2.08;1.63;;;1.00;98.90;;;;;;4766096;30;20415;-78
2021/01/24 11:45:33;;;;;;;4.85;1.98;;;1.10;98.30;;;;;;4749939;30;20143;-77
2021/01/24 11:48:04;;;;;;;2.97;1.75;;;1.10;97.90;;;;;;4740490;30;20058;-77
2021/01/24 11:50:36;;;;;;;2.63;1.65;;;1.10;99.40;;;;;;4737490;30;20532;-78
2021/01/24 11:53:07;;;;;;;3.75;2.05;;;1.00;98.30;;;;;;4757616;30;20057;-76
2021/01/24 11:55:39;;;;;;;5.57;2.10;;;1.00;98.70;;;;;;4769322;30;20061;-77
2021/01/24 11:58:10;;;;;;;2.22;1.80;;;1.00;98.80;;;;;;4769192;30;20058;-76
2021/01/24 12:00:42;;;;;;;2.10;1.83;;;1.00;98.50;;;;;;4769579;30;20052;-77
2021/01/24 12:03:13;;;;;;;4.13;1.60;;;1.10;99.40;;;;;;4769368;30;20065;-77
2021/01/24 12:05:44;;;;;;;3.58;1.90;;;1.10;98.20;;;;;;4769188;30;20142;-78
2021/01/24 12:08:16;;;;;;;4.35;2.35;;;1.20;99.50;;;;;;4768792;30;20058;-77
2021/01/24 12:10:47;;;;;;;4.38;1.77;;;1.30;99.50;;;;;;4769000;30;20055;-76
2021/01/24 12:13:18;;;;;;;1.75;1.40;;;1.30;99.10;;;;;;4769155;30;20061;-78
2021/01/24 12:15:44;;;;;;;2.65;1.52;;;1.30;97.70;;;;;;4769045;30;20155;-77
2021/01/24 12:18:16;;;;;;;2.95;1.50;;;1.20;97.90;;;;;;4768663;30;20106;-77
2021/01/24 12:20:47;;;;;;;1.92;1.38;;;1.20;98.00;;;;;;4767740;30;20047;-76
2021/01/24 12:23:13;;;;;;;5.10;1.58;;;1.30;97.80;;;;;;4768773;29;20055;-76
2021/01/24 12:25:44;;;;;;;3.35;1.60;;;1.20;97.90;;;;;;4768770;30;20069;-78
2021/01/24 12:28:16;;;;;;;2.95;1.80;;;1.20;98.40;;;;;;4768556;30;20039;-78
2021/01/24 12:30:47;;;;;;;2.85;1.60;;;1.20;97.60;;;;;;4768886;30;20052;-77
2021/01/24 12:33:18;;;;;;;2.85;1.60;;;1.20;98.60;;;;;;4783895;30;20051;-76
2021/01/24 12:35:49;;;;;;;2.50;1.55;;;1.20;99.00;;;;;;4768797;30;20410;-76
2021/01/24 12:38:21;;;;;;;1.70;1.35;;;1.20;98.00;;;;;;4768394;30;20735;-77
2021/01/24 12:40:52;;;;;;;3.97;1.70;;;1.20;98.20;;;;;;4783713;30;20054;-78
2021/01/24 12:43:23;;;;;;;2.42;1.42;;;1.20;98.70;;;;;;4783619;30;20043;-78
2021/01/24 12:45:54;;;;;;;2.28;1.42;;;1.20;98.40;;;;;;4783774;30;20422;-76
2021/01/24 12:48:25;;;;;;;3.53;2.13;;;1.20;98.20;;;;;;4768049;30;20047;-77
2021/01/24 12:50:57;;;;;;;2.60;1.35;;;1.20;98.70;;;;;;4768844;30;20066;-76
2021/01/24 12:53:28;;;;;;;3.03;1.67;;;1.20;98.40;;;;;;4784667;30;20490;-76
2021/01/24 12:55:59;;;;;;;2.53;1.50;;;1.20;99.60;;;;;;4768331;30;20047;-76
2021/01/24 12:58:32;;;;;;;3.90;1.80;;;1.20;96.30;;;;;;4768067;30;20061;-76
2021/01/24 13:01:03;;;;;;;4.18;1.77;;;1.30;96.70;;;;;;4768441;30;20047;-76
2021/01/24 13:03:34;;;;;;;3.53;1.67;;;1.30;97.50;;;;;;4768635;30;20055;-77
2021/01/24 13:06:05;;;;;;;3.45;1.90;;;1.20;97.10;;;;;;4768762;30;20051;-77
2021/01/24 13:08:37;;;;;;;3.63;1.20;;;1.20;97.60;;;;;;4768169;30;20047;-77
2021/01/24 13:11:08;;;;;;;4.05;1.60;;;1.20;96.20;;;;;;4768304;30;20071;-79
2021/01/24 13:13:42;;;;;;;3.50;1.65;;;1.20;97.20;;;;;;4768315;30;20400;-77
2021/01/24 13:16:13;;;;;;;;;;;1.20;96.70;;;;;;4783725;30;20047;-76
2021/01/24 13:18:44;;;;;;;1.65;1.15;;;1.10;96.70;;;;;;4768700;30;19929;-78